sensor_id;sensor_type;location;lat;lon;timestamp;temperature;humidity
46932;DHT22;32670;51.464;11.964;2023-10-13T00:02:05;24.70;66.00
46932;DHT22;32670;51.464;11.964;2023-10-13T00:04:32;24.70;65.90
46932;DHT22;32670;51.464;11.964;2023-10-13T00:07:01;24.70;65.80
46932;DHT22;32670;51.464;11.964;2023-10-13T00:09:28;24.70;65.80
46932;DHT22;32670;51.464;11.964;2023-10-13T00:12:04;24.70;65.80
46932;DHT22;32670;51.464;11.964;2023-10-13T00:14:31;24.70;65.60
46932;DHT22;32670;51.464;11.964;2023-10-13T00:17:06;24.70;65.60
46932;DHT22;32670;51.464;11.964;2023-10-13T00:19:41;24.70;65.60
46932;DHT22;32670;51.464;11.964;2023-10-13T00:22:11;24.70;65.50
46932;DHT22;32670;51.464;11.964;2023-10-13T00:24:38;24.70;65.30
46932;DHT22;32670;51.464;11.964;2023-10-13T00:27:19;24.70;64.90
46932;DHT22;32670;51.464;11.964;2023-10-13T00:30:06;24.70;64.80
46932;DHT22;32670;51.464;11.964;2023-10-13T00:32:57;24.70;64.60
46932;DHT22;32670;51.464;11.964;2023-10-13T00:35:24;24.70;65.00
46932;DHT22;32670;51.464;11.964;2023-10-13T00:38:05;24.70;64.90
46932;DHT22;32670;51.464;11.964;2023-10-13T00:40:46;24.70;64.90
46932;DHT22;32670;51.464;11.964;2023-10-13T00:43:18;24.70;64.40
46932;DHT22;32670;51.464;11.964;2023-10-13T00:45:51;24.70;64.50
46932;DHT22;32670;51.464;11.964;2023-10-13T00:48:33;24.70;64.60
46932;DHT22;32670;51.464;11.964;2023-10-13T00:51:05;24.70;64.60
46932;DHT22;32670;51.464;11.964;2023-10-13T00:53:37;24.70;64.70
46932;DHT22;32670;51.464;11.964;2023-10-13T00:56:06;24.70;64.70
46932;DHT22;32670;51.464;11.964;2023-10-13T00:58:44;24.70;64.80
46932;DHT22;32670;51.464;11.964;2023-10-13T01:01:15;24.60;64.80
46932;DHT22;32670;51.464;11.964;2023-10-13T01:03:52;24.70;64.80
46932;DHT22;32670;51.464;11.964;2023-10-13T01:06:25;24.60;64.70
46932;DHT22;32670;51.464;11.964;2023-10-13T01:09:06;24.70;64.80
46932;DHT22;32670;51.464;11.964;2023-10-13T01:11:48;24.70;64.90
46932;DHT22;32670;51.464;11.964;2023-10-13T01:14:18;24.70;64.50
46932;DHT22;32670;51.464;11.964;2023-10-13T01:16:49;24.70;64.70
46932;DHT22;32670;51.464;11.964;2023-10-13T01:19:19;24.70;64.80
46932;DHT22;32670;51.464;11.964;2023-10-13T01:21:49;24.60;64.80
46932;DHT22;32670;51.464;11.964;2023-10-13T01:24:15;24.60;64.70
46932;DHT22;32670;51.464;11.964;2023-10-13T01:26:44;24.60;64.70
46932;DHT22;32670;51.464;11.964;2023-10-13T01:29:10;24.60;64.60
46932;DHT22;32670;51.464;11.964;2023-10-13T01:31:43;24.60;64.60
46932;DHT22;32670;51.464;11.964;2023-10-13T01:34:19;24.60;64.80
46932;DHT22;32670;51.464;11.964;2023-10-13T01:36:54;24.60;64.80
46932;DHT22;32670;51.464;11.964;2023-10-13T01:39:21;24.60;64.70
46932;DHT22;32670;51.464;11.964;2023-10-13T01:41:47;24.60;64.60
46932;DHT22;32670;51.464;11.964;2023-10-13T01:44:26;24.60;64.50
46932;DHT22;32670;51.464;11.964;2023-10-13T01:46:55;24.60;64.50
46932;DHT22;32670;51.464;11.964;2023-10-13T01:49:21;24.60;64.40
46932;DHT22;32670;51.464;11.964;2023-10-13T01:51:48;24.60;64.60
46932;DHT22;32670;51.464;11.964;2023-10-13T01:54:14;24.60;64.50
46932;DHT22;32670;51.464;11.964;2023-10-13T01:56:40;24.60;64.40
46932;DHT22;32670;51.464;11.964;2023-10-13T01:59:13;24.60;64.40
46932;DHT22;32670;51.464;11.964;2023-10-13T02:01:39;24.60;64.10
46932;DHT22;32670;51.464;11.964;2023-10-13T02:04:06;24.60;64.60
46932;DHT22;32670;51.464;11.964;2023-10-13T02:06:33;24.60;64.40
46932;DHT22;32670;51.464;11.964;2023-10-13T02:09:03;24.60;65.00
46932;DHT22;32670;51.464;11.964;2023-10-13T02:11:44;24.70;64.40
46932;DHT22;32670;51.464;11.964;2023-10-13T02:14:18;24.60;64.30
46932;DHT22;32670;51.464;11.964;2023-10-13T02:16:47;24.60;64.30
46932;DHT22;32670;51.464;11.964;2023-10-13T02:19:15;24.60;63.90
46932;DHT22;32670;51.464;11.964;2023-10-13T02:21:41;24.60;64.10
46932;DHT22;32670;51.464;11.964;2023-10-13T02:24:10;24.70;64.20
46932;DHT22;32670;51.464;11.964;2023-10-13T02:26:40;24.70;64.10
46932;DHT22;32670;51.464;11.964;2023-10-13T02:29:06;24.60;64.00
46932;DHT22;32670;51.464;11.964;2023-10-13T02:31:36;24.60;64.00
46932;DHT22;32670;51.464;11.964;2023-10-13T02:34:02;24.70;63.90
46932;DHT22;32670;51.464;11.964;2023-10-13T02:36:40;24.70;63.90
46932;DHT22;32670;51.464;11.964;2023-10-13T02:39:15;24.70;63.90
46932;DHT22;32670;51.464;11.964;2023-10-13T02:41:42;24.70;63.90
46932;DHT22;32670;51.464;11.964;2023-10-13T02:44:14;24.70;63.90
46932;DHT22;32670;51.464;11.964;2023-10-13T02:47:05;24.70;63.80
46932;DHT22;32670;51.464;11.964;2023-10-13T02:49:39;24.70;63.70
46932;DHT22;32670;51.464;11.964;2023-10-13T02:52:08;24.70;63.60
46932;DHT22;32670;51.464;11.964;2023-10-13T02:54:35;24.70;63.50
46932;DHT22;32670;51.464;11.964;2023-10-13T02:57:07;24.70;63.70
46932;DHT22;32670;51.464;11.964;2023-10-13T02:59:33;24.70;63.60
46932;DHT22;32670;51.464;11.964;2023-10-13T03:02:20;24.70;63.50
46932;DHT22;32670;51.464;11.964;2023-10-13T03:04:52;24.70;63.60
46932;DHT22;32670;51.464;11.964;2023-10-13T03:07:27;24.60;63.60
46932;DHT22;32670;51.464;11.964;2023-10-13T03:09:54;24.70;64.10
46932;DHT22;32670;51.464;11.964;2023-10-13T03:12:24;24.70;63.60
46932;DHT22;32670;51.464;11.964;2023-10-13T03:14:58;24.60;63.60
46932;DHT22;32670;51.464;11.964;2023-10-13T03:17:38;24.70;63.60
46932;DHT22;32670;51.464;11.964;2023-10-13T03:20:12;24.60;63.80
46932;DHT22;32670;51.464;11.964;2023-10-13T03:22:39;24.70;64.30
46932;DHT22;32670;51.464;11.964;2023-10-13T03:25:05;24.60;64.30
46932;DHT22;32670;51.464;11.964;2023-10-13T03:27:33;24.70;64.10
46932;DHT22;32670;51.464;11.964;2023-10-13T03:30:07;24.70;64.30
46932;DHT22;32670;51.464;11.964;2023-10-13T03:32:41;24.70;64.30
46932;DHT22;32670;51.464;11.964;2023-10-13T03:35:22;24.70;64.40
46932;DHT22;32670;51.464;11.964;2023-10-13T03:37:53;24.70;64.40
46932;DHT22;32670;51.464;11.964;2023-10-13T03:40:20;24.70;64.50
46932;DHT22;32670;51.464;11.964;2023-10-13T03:42:49;24.70;64.40
46932;DHT22;32670;51.464;11.964;2023-10-13T03:45:29;24.70;64.20
46932;DHT22;32670;51.464;11.964;2023-10-13T03:48:01;24.70;64.30
46932;DHT22;32670;51.464;11.964;2023-10-13T03:50:34;24.70;64.30
46932;DHT22;32670;51.464;11.964;2023-10-13T03:53:01;24.70;64.20
46932;DHT22;32670;51.464;11.964;2023-10-13T03:55:27;24.70;64.50
46932;DHT22;32670;51.464;11.964;2023-10-13T03:57:59;24.70;64.30
46932;DHT22;32670;51.464;11.964;2023-10-13T04:00:25;24.70;64.50
46932;DHT22;32670;51.464;11.964;2023-10-13T04:02:53;24.70;64.30
46932;DHT22;32670;51.464;11.964;2023-10-13T04:05:27;24.80;64.40
46932;DHT22;32670;51.464;11.964;2023-10-13T04:08:06;24.70;64.40
46932;DHT22;32670;51.464;11.964;2023-10-13T04:10:52;24.80;64.50
46932;DHT22;32670;51.464;11.964;2023-10-13T04:13:18;24.70;64.20
46932;DHT22;32670;51.464;11.964;2023-10-13T04:16:03;24.80;64.20
46932;DHT22;32670;51.464;11.964;2023-10-13T04:18:48;24.70;64.20
46932;DHT22;32670;51.464;11.964;2023-10-13T04:21:25;24.80;64.90
46932;DHT22;32670;51.464;11.964;2023-10-13T04:24:13;24.70;64.20
46932;DHT22;32670;51.464;11.964;2023-10-13T04:26:49;24.80;64.70
46932;DHT22;32670;51.464;11.964;2023-10-13T04:29:33;24.70;64.50
46932;DHT22;32670;51.464;11.964;2023-10-13T04:32:14;24.80;64.80
46932;DHT22;32670;51.464;11.964;2023-10-13T04:34:41;24.80;65.00
46932;DHT22;32670;51.464;11.964;2023-10-13T04:37:13;24.80;65.00
46932;DHT22;32670;51.464;11.964;2023-10-13T04:39:57;24.80;65.40
46932;DHT22;32670;51.464;11.964;2023-10-13T04:42:35;24.80;65.30
46932;DHT22;32670;51.464;11.964;2023-10-13T04:45:09;24.80;65.30
46932;DHT22;32670;51.464;11.964;2023-10-13T04:47:54;24.80;65.30
46932;DHT22;32670;51.464;11.964;2023-10-13T04:50:23;24.80;65.20
46932;DHT22;32670;51.464;11.964;2023-10-13T04:53:00;24.80;65.30
46932;DHT22;32670;51.464;11.964;2023-10-13T04:55:38;24.80;65.30
46932;DHT22;32670;51.464;11.964;2023-10-13T04:58:13;24.80;65.10
46932;DHT22;32670;51.464;11.964;2023-10-13T05:01:03;24.80;64.70
46932;DHT22;32670;51.464;11.964;2023-10-13T05:03:49;24.80;65.10
46932;DHT22;32670;51.464;11.964;2023-10-13T05:06:33;24.80;65.30
46932;DHT22;32670;51.464;11.964;2023-10-13T05:09:12;24.80;65.10
46932;DHT22;32670;51.464;11.964;2023-10-13T05:11:56;24.80;65.20
46932;DHT22;32670;51.464;11.964;2023-10-13T05:14:40;24.80;65.10
46932;DHT22;32670;51.464;11.964;2023-10-13T05:17:24;24.80;64.90
46932;DHT22;32670;51.464;11.964;2023-10-13T05:20:08;24.80;65.60
46932;DHT22;32670;51.464;11.964;2023-10-13T05:22:53;24.80;65.30
46932;DHT22;32670;51.464;11.964;2023-10-13T05:25:37;24.80;65.20
46932;DHT22;32670;51.464;11.964;2023-10-13T05:28:22;24.80;65.00
46932;DHT22;32670;51.464;11.964;2023-10-13T05:31:07;24.80;62.80
46932;DHT22;32670;51.464;11.964;2023-10-13T05:33:51;24.60;62.40
46932;DHT22;32670;51.464;11.964;2023-10-13T05:36:35;24.40;62.40
46932;DHT22;32670;51.464;11.964;2023-10-13T05:39:19;24.30;62.50
46932;DHT22;32670;51.464;11.964;2023-10-13T05:42:03;24.20;62.70
46932;DHT22;32670;51.464;11.964;2023-10-13T05:44:48;24.10;62.70
46932;DHT22;32670;51.464;11.964;2023-10-13T05:47:32;24.10;62.80
46932;DHT22;32670;51.464;11.964;2023-10-13T05:50:05;24.00;62.80
46932;DHT22;32670;51.464;11.964;2023-10-13T05:52:50;23.90;62.80
46932;DHT22;32670;51.464;11.964;2023-10-13T05:55:25;23.90;63.10
46932;DHT22;32670;51.464;11.964;2023-10-13T05:58:09;23.80;63.00
46932;DHT22;32670;51.464;11.964;2023-10-13T06:00:54;23.80;63.30
46932;DHT22;32670;51.464;11.964;2023-10-13T06:03:38;23.80;63.40
46932;DHT22;32670;51.464;11.964;2023-10-13T06:06:22;23.70;63.40
46932;DHT22;32670;51.464;11.964;2023-10-13T06:09:06;23.70;63.50
46932;DHT22;32670;51.464;11.964;2023-10-13T06:11:50;23.70;63.50
46932;DHT22;32670;51.464;11.964;2023-10-13T06:14:34;23.60;63.70
46932;DHT22;32670;51.464;11.964;2023-10-13T06:17:18;23.60;63.90
46932;DHT22;32670;51.464;11.964;2023-10-13T06:20:02;23.70;63.90
46932;DHT22;32670;51.464;11.964;2023-10-13T06:22:49;23.70;63.90
46932;DHT22;32670;51.464;11.964;2023-10-13T06:25:34;23.70;63.70
46932;DHT22;32670;51.464;11.964;2023-10-13T06:28:18;23.70;63.70
46932;DHT22;32670;51.464;11.964;2023-10-13T06:31:05;23.70;64.00
46932;DHT22;32670;51.464;11.964;2023-10-13T06:33:36;23.70;63.80
46932;DHT22;32670;51.464;11.964;2023-10-13T06:36:07;23.80;63.40
46932;DHT22;32670;51.464;11.964;2023-10-13T06:38:35;23.80;63.50
46932;DHT22;32670;51.464;11.964;2023-10-13T06:41:04;23.90;63.30
46932;DHT22;32670;51.464;11.964;2023-10-13T06:43:34;24.00;63.40
46932;DHT22;32670;51.464;11.964;2023-10-13T06:46:11;24.00;63.10
46932;DHT22;32670;51.464;11.964;2023-10-13T06:48:40;24.00;62.90
46932;DHT22;32670;51.464;11.964;2023-10-13T06:51:07;24.10;63.00
46932;DHT22;32670;51.464;11.964;2023-10-13T06:53:48;24.00;62.90
46932;DHT22;32670;51.464;11.964;2023-10-13T06:56:14;24.10;62.70
46932;DHT22;32670;51.464;11.964;2023-10-13T06:58:52;24.10;62.80
46932;DHT22;32670;51.464;11.964;2023-10-13T07:01:27;24.10;62.70
46932;DHT22;32670;51.464;11.964;2023-10-13T07:03:53;24.10;62.80
46932;DHT22;32670;51.464;11.964;2023-10-13T07:06:22;24.10;62.80
46932;DHT22;32670;51.464;11.964;2023-10-13T07:08:48;24.10;62.70
46932;DHT22;32670;51.464;11.964;2023-10-13T07:11:29;24.20;62.70
46932;DHT22;32670;51.464;11.964;2023-10-13T07:14:07;24.10;62.60
46932;DHT22;32670;51.464;11.964;2023-10-13T07:16:43;24.10;62.70
46932;DHT22;32670;51.464;11.964;2023-10-13T07:19:12;24.20;62.70
46932;DHT22;32670;51.464;11.964;2023-10-13T07:21:43;24.20;62.70
46932;DHT22;32670;51.464;11.964;2023-10-13T07:24:12;24.10;62.10
46932;DHT22;32670;51.464;11.964;2023-10-13T07:26:38;24.10;62.60
46932;DHT22;32670;51.464;11.964;2023-10-13T07:29:22;24.20;62.40
46932;DHT22;32670;51.464;11.964;2023-10-13T07:31:50;24.20;62.70
46932;DHT22;32670;51.464;11.964;2023-10-13T07:34:16;24.20;62.70
46932;DHT22;32670;51.464;11.964;2023-10-13T07:36:58;24.20;62.70
46932;DHT22;32670;51.464;11.964;2023-10-13T07:39:28;24.20;62.70
46932;DHT22;32670;51.464;11.964;2023-10-13T07:41:54;24.20;62.60
46932;DHT22;32670;51.464;11.964;2023-10-13T07:44:21;24.20;62.70
46932;DHT22;32670;51.464;11.964;2023-10-13T07:46:51;24.20;62.80
46932;DHT22;32670;51.464;11.964;2023-10-13T07:49:29;24.20;62.10
46932;DHT22;32670;51.464;11.964;2023-10-13T07:51:57;24.20;62.20
46932;DHT22;32670;51.464;11.964;2023-10-13T07:54:26;24.20;62.00
46932;DHT22;32670;51.464;11.964;2023-10-13T07:56:52;24.20;62.70
46932;DHT22;32670;51.464;11.964;2023-10-13T07:59:20;24.20;62.40
46932;DHT22;32670;51.464;11.964;2023-10-13T08:01:48;24.20;62.60
46932;DHT22;32670;51.464;11.964;2023-10-13T08:04:32;24.20;62.70
46932;DHT22;32670;51.464;11.964;2023-10-13T08:07:01;24.20;62.70
46932;DHT22;32670;51.464;11.964;2023-10-13T08:09:39;24.20;62.80
46932;DHT22;32670;51.464;11.964;2023-10-13T08:12:16;24.20;62.70
46932;DHT22;32670;51.464;11.964;2023-10-13T08:14:47;24.20;62.30
46932;DHT22;32670;51.464;11.964;2023-10-13T08:17:12;24.20;62.70
46932;DHT22;32670;51.464;11.964;2023-10-13T08:19:39;24.20;62.90
46932;DHT22;32670;51.464;11.964;2023-10-13T08:22:10;24.20;62.50
46932;DHT22;32670;51.464;11.964;2023-10-13T08:24:46;24.20;62.80
46932;DHT22;32670;51.464;11.964;2023-10-13T08:27:13;24.20;62.80
46932;DHT22;32670;51.464;11.964;2023-10-13T08:29:41;24.20;62.90
46932;DHT22;32670;51.464;11.964;2023-10-13T08:32:30;24.20;62.80
46932;DHT22;32670;51.464;11.964;2023-10-13T08:35:00;24.20;62.80
46932;DHT22;32670;51.464;11.964;2023-10-13T08:37:30;24.20;63.00
46932;DHT22;32670;51.464;11.964;2023-10-13T08:40:15;24.20;63.00
46932;DHT22;32670;51.464;11.964;2023-10-13T08:42:44;24.20;63.00
46932;DHT22;32670;51.464;11.964;2023-10-13T08:45:14;24.20;62.70
46932;DHT22;32670;51.464;11.964;2023-10-13T08:47:49;24.20;62.80
46932;DHT22;32670;51.464;11.964;2023-10-13T08:50:34;24.20;62.80
46932;DHT22;32670;51.464;11.964;2023-10-13T08:56:02;24.20;63.00
46932;DHT22;32670;51.464;11.964;2023-10-13T08:58:45;24.20;63.10
46932;DHT22;32670;51.464;11.964;2023-10-13T09:01:26;24.20;63.20
46932;DHT22;32670;51.464;11.964;2023-10-13T09:04:12;24.20;62.30
46932;DHT22;32670;51.464;11.964;2023-10-13T09:06:45;24.20;62.40
46932;DHT22;32670;51.464;11.964;2023-10-13T09:09:45;24.20;62.20
46932;DHT22;32670;51.464;11.964;2023-10-13T09:12:24;24.20;62.90
46932;DHT22;32670;51.464;11.964;2023-10-13T09:15:10;24.20;62.40
46932;DHT22;32670;51.464;11.964;2023-10-13T09:17:49;24.20;63.10
46932;DHT22;32670;51.464;11.964;2023-10-13T09:20:34;24.20;62.40
46932;DHT22;32670;51.464;11.964;2023-10-13T09:25:39;24.30;62.50
46932;DHT22;32670;51.464;11.964;2023-10-13T09:28:23;24.20;62.10
46932;DHT22;32670;51.464;11.964;2023-10-13T09:30:52;24.20;62.60
46932;DHT22;32670;51.464;11.964;2023-10-13T09:33:25;24.20;62.50
46932;DHT22;32670;51.464;11.964;2023-10-13T09:36:16;24.20;62.50
46932;DHT22;32670;51.464;11.964;2023-10-13T09:38:42;24.30;62.30
46932;DHT22;32670;51.464;11.964;2023-10-13T09:41:14;24.30;63.20
46932;DHT22;32670;51.464;11.964;2023-10-13T09:43:52;24.30;63.00
46932;DHT22;32670;51.464;11.964;2023-10-13T09:46:21;24.30;63.30
46932;DHT22;32670;51.464;11.964;2023-10-13T09:48:49;24.20;63.10
46932;DHT22;32670;51.464;11.964;2023-10-13T09:51:29;24.30;62.60
46932;DHT22;32670;51.464;11.964;2023-10-13T09:54:06;24.20;62.00
46932;DHT22;32670;51.464;11.964;2023-10-13T09:56:57;24.30;62.80
46932;DHT22;32670;51.464;11.964;2023-10-13T09:59:43;24.20;63.20
46932;DHT22;32670;51.464;11.964;2023-10-13T10:02:14;24.30;62.60
46932;DHT22;32670;51.464;11.964;2023-10-13T10:04:51;24.30;63.60
46932;DHT22;32670;51.464;11.964;2023-10-13T10:07:27;24.30;62.70
46932;DHT22;32670;51.464;11.964;2023-10-13T10:09:59;24.30;63.20
46932;DHT22;32670;51.464;11.964;2023-10-13T10:18:21;24.30;62.10
46932;DHT22;32670;51.464;11.964;2023-10-13T10:20:48;24.30;62.50
46932;DHT22;32670;51.464;11.964;2023-10-13T10:23:27;24.20;62.70
46932;DHT22;32670;51.464;11.964;2023-10-13T10:25:57;24.20;62.50
46932;DHT22;32670;51.464;11.964;2023-10-13T10:28:41;24.30;63.40
46932;DHT22;32670;51.464;11.964;2023-10-13T10:31:10;24.30;63.80
46932;DHT22;32670;51.464;11.964;2023-10-13T10:33:38;24.30;63.70
46932;DHT22;32670;51.464;11.964;2023-10-13T10:36:04;24.30;63.00
46932;DHT22;32670;51.464;11.964;2023-10-13T10:38:30;24.30;63.50
46932;DHT22;32670;51.464;11.964;2023-10-13T10:43:27;24.30;63.60
46932;DHT22;32670;51.464;11.964;2023-10-13T10:45:54;24.30;63.80
46932;DHT22;32670;51.464;11.964;2023-10-13T10:48:25;24.40;64.10
46932;DHT22;32670;51.464;11.964;2023-10-13T10:50:57;24.40;64.00
46932;DHT22;32670;51.464;11.964;2023-10-13T10:53:24;24.40;63.90
46932;DHT22;32670;51.464;11.964;2023-10-13T10:56:07;24.40;64.10
46932;DHT22;32670;51.464;11.964;2023-10-13T10:58:41;24.40;64.00
46932;DHT22;32670;51.464;11.964;2023-10-13T11:01:10;24.40;63.90
46932;DHT22;32670;51.464;11.964;2023-10-13T11:03:37;24.40;64.00
46932;DHT22;32670;51.464;11.964;2023-10-13T11:06:04;24.40;64.00
46932;DHT22;32670;51.464;11.964;2023-10-13T11:08:30;24.40;64.40
46932;DHT22;32670;51.464;11.964;2023-10-13T11:11:02;24.40;63.80
46932;DHT22;32670;51.464;11.964;2023-10-13T11:13:41;24.40;63.80
46932;DHT22;32670;51.464;11.964;2023-10-13T11:16:22;24.40;63.80
46932;DHT22;32670;51.464;11.964;2023-10-13T11:19:05;24.40;64.00
46932;DHT22;32670;51.464;11.964;2023-10-13T11:21:30;24.40;64.00
46932;DHT22;32670;51.464;11.964;2023-10-13T11:23:57;24.40;64.10
46932;DHT22;32670;51.464;11.964;2023-10-13T11:26:33;24.40;64.30
46932;DHT22;32670;51.464;11.964;2023-10-13T11:28:59;24.40;64.00
46932;DHT22;32670;51.464;11.964;2023-10-13T11:31:24;24.40;63.80
46932;DHT22;32670;51.464;11.964;2023-10-13T11:33:50;24.40;63.80
46932;DHT22;32670;51.464;11.964;2023-10-13T11:36:17;24.40;63.70
46932;DHT22;32670;51.464;11.964;2023-10-13T11:38:47;24.40;63.70
46932;DHT22;32670;51.464;11.964;2023-10-13T11:41:12;24.40;63.70
46932;DHT22;32670;51.464;11.964;2023-10-13T11:43:41;24.40;63.50
46932;DHT22;32670;51.464;11.964;2023-10-13T11:46:08;24.40;63.50
46932;DHT22;32670;51.464;11.964;2023-10-13T11:48:33;24.40;63.40
46932;DHT22;32670;51.464;11.964;2023-10-13T11:51:00;24.40;63.30
46932;DHT22;32670;51.464;11.964;2023-10-13T11:53:26;24.40;63.20
46932;DHT22;32670;51.464;11.964;2023-10-13T11:55:55;24.40;63.20
46932;DHT22;32670;51.464;11.964;2023-10-13T11:58:20;24.40;63.20
46932;DHT22;32670;51.464;11.964;2023-10-13T12:00:46;24.40;63.10
46932;DHT22;32670;51.464;11.964;2023-10-13T12:03:47;24.40;63.00
46932;DHT22;32670;51.464;11.964;2023-10-13T12:06:32;24.40;63.00
46932;DHT22;32670;51.464;11.964;2023-10-13T12:09:18;24.40;63.00
46932;DHT22;32670;51.464;11.964;2023-10-13T12:11:47;24.40;62.90
46932;DHT22;32670;51.464;11.964;2023-10-13T12:14:16;24.40;62.80
46932;DHT22;32670;51.464;11.964;2023-10-13T12:16:48;24.40;62.80
46932;DHT22;32670;51.464;11.964;2023-10-13T12:19:20;24.50;62.80
46932;DHT22;32670;51.464;11.964;2023-10-13T12:21:52;24.40;63.40
46932;DHT22;32670;51.464;11.964;2023-10-13T12:24:24;24.40;62.70
46932;DHT22;32670;51.464;11.964;2023-10-13T12:27:08;24.40;62.70
46932;DHT22;32670;51.464;11.964;2023-10-13T12:29:49;24.40;62.60
46932;DHT22;32670;51.464;11.964;2023-10-13T12:32:17;24.50;62.60
46932;DHT22;32670;51.464;11.964;2023-10-13T12:34:48;24.40;62.60
46932;DHT22;32670;51.464;11.964;2023-10-13T12:37:24;24.50;62.50
46932;DHT22;32670;51.464;11.964;2023-10-13T12:40:05;24.50;62.50
46932;DHT22;32670;51.464;11.964;2023-10-13T12:43:07;24.50;62.50
46932;DHT22;32670;51.464;11.964;2023-10-13T12:45:51;24.40;62.40
46932;DHT22;32670;51.464;11.964;2023-10-13T12:48:37;24.50;62.40
46932;DHT22;32670;51.464;11.964;2023-10-13T12:51:23;24.50;62.40
46932;DHT22;32670;51.464;11.964;2023-10-13T12:53:58;24.50;62.40
46932;DHT22;32670;51.464;11.964;2023-10-13T12:56:42;24.50;62.30
46932;DHT22;32670;51.464;11.964;2023-10-13T12:59:09;24.50;62.40
46932;DHT22;32670;51.464;11.964;2023-10-13T13:01:39;24.50;62.30
46932;DHT22;32670;51.464;11.964;2023-10-13T13:04:08;24.50;62.30
46932;DHT22;32670;51.464;11.964;2023-10-13T13:06:37;24.50;63.00
46932;DHT22;32670;51.464;11.964;2023-10-13T13:09:02;24.50;62.50
46932;DHT22;32670;51.464;11.964;2023-10-13T13:11:34;24.50;62.40
46932;DHT22;32670;51.464;11.964;2023-10-13T13:14:05;24.50;62.40
46932;DHT22;32670;51.464;11.964;2023-10-13T13:16:33;24.50;62.40
46932;DHT22;32670;51.464;11.964;2023-10-13T13:18:58;24.50;62.40
46932;DHT22;32670;51.464;11.964;2023-10-13T13:21:24;24.50;62.40
46932;DHT22;32670;51.464;11.964;2023-10-13T13:23:50;24.60;62.40
46932;DHT22;32670;51.464;11.964;2023-10-13T13:26:16;24.50;62.50
46932;DHT22;32670;51.464;11.964;2023-10-13T13:28:45;24.60;62.70
46932;DHT22;32670;51.464;11.964;2023-10-13T13:31:10;24.50;62.80
46932;DHT22;32670;51.464;11.964;2023-10-13T13:33:38;24.60;62.80
46932;DHT22;32670;51.464;11.964;2023-10-13T13:36:07;24.60;62.70
46932;DHT22;32670;51.464;11.964;2023-10-13T13:38:39;24.60;62.70
46932;DHT22;32670;51.464;11.964;2023-10-13T13:41:11;24.60;62.70
46932;DHT22;32670;51.464;11.964;2023-10-13T13:43:40;24.50;62.70
46932;DHT22;32670;51.464;11.964;2023-10-13T13:46:16;24.60;62.80
46932;DHT22;32670;51.464;11.964;2023-10-13T13:48:43;24.60;62.70
46932;DHT22;32670;51.464;11.964;2023-10-13T13:51:12;24.60;62.70
46932;DHT22;32670;51.464;11.964;2023-10-13T13:53:43;24.60;62.80
46932;DHT22;32670;51.464;11.964;2023-10-13T13:56:14;24.50;62.70
46932;DHT22;32670;51.464;11.964;2023-10-13T13:58:44;24.60;62.80
46932;DHT22;32670;51.464;11.964;2023-10-13T14:01:10;24.60;62.70
46932;DHT22;32670;51.464;11.964;2023-10-13T14:03:41;24.50;62.70
46932;DHT22;32670;51.464;11.964;2023-10-13T14:06:17;24.60;62.70
46932;DHT22;32670;51.464;11.964;2023-10-13T14:08:50;24.60;62.70
46932;DHT22;32670;51.464;11.964;2023-10-13T14:11:23;24.50;62.60
46932;DHT22;32670;51.464;11.964;2023-10-13T14:14:11;24.60;62.60
46932;DHT22;32670;51.464;11.964;2023-10-13T14:16:39;24.60;62.50
46932;DHT22;32670;51.464;11.964;2023-10-13T14:19:10;24.60;62.50
46932;DHT22;32670;51.464;11.964;2023-10-13T14:21:36;24.60;62.50
46932;DHT22;32670;51.464;11.964;2023-10-13T14:24:01;24.50;62.40
46932;DHT22;32670;51.464;11.964;2023-10-13T14:26:28;24.50;62.40
46932;DHT22;32670;51.464;11.964;2023-10-13T14:28:55;24.60;62.50
46932;DHT22;32670;51.464;11.964;2023-10-13T14:31:31;24.60;62.40
46932;DHT22;32670;51.464;11.964;2023-10-13T14:33:57;24.60;62.50
46932;DHT22;32670;51.464;11.964;2023-10-13T14:36:23;24.60;62.50
46932;DHT22;32670;51.464;11.964;2023-10-13T14:38:49;24.60;62.50
46932;DHT22;32670;51.464;11.964;2023-10-13T14:41:18;24.60;62.50
46932;DHT22;32670;51.464;11.964;2023-10-13T14:43:45;24.60;62.50
46932;DHT22;32670;51.464;11.964;2023-10-13T14:46:17;24.60;62.00
46932;DHT22;32670;51.464;11.964;2023-10-13T14:48:43;24.60;62.50
46932;DHT22;32670;51.464;11.964;2023-10-13T14:51:12;24.60;62.50
46932;DHT22;32670;51.464;11.964;2023-10-13T14:53:44;24.60;62.50
46932;DHT22;32670;51.464;11.964;2023-10-13T14:56:11;24.60;62.40
46932;DHT22;32670;51.464;11.964;2023-10-13T14:58:37;24.60;62.40
46932;DHT22;32670;51.464;11.964;2023-10-13T15:01:13;24.60;62.30
46932;DHT22;32670;51.464;11.964;2023-10-13T15:03:42;24.60;62.20
46932;DHT22;32670;51.464;11.964;2023-10-13T15:06:07;24.60;62.00
46932;DHT22;32670;51.464;11.964;2023-10-13T15:08:33;24.60;62.00
46932;DHT22;32670;51.464;11.964;2023-10-13T15:11:08;24.60;62.10
46932;DHT22;32670;51.464;11.964;2023-10-13T15:13:38;24.60;61.40
46932;DHT22;32670;51.464;11.964;2023-10-13T15:16:16;24.60;62.00
46932;DHT22;32670;51.464;11.964;2023-10-13T15:18:43;24.60;62.10
46932;DHT22;32670;51.464;11.964;2023-10-13T15:21:09;24.60;62.10
46932;DHT22;32670;51.464;11.964;2023-10-13T15:23:35;24.60;62.00
46932;DHT22;32670;51.464;11.964;2023-10-13T15:26:10;24.60;61.90
46932;DHT22;32670;51.464;11.964;2023-10-13T15:28:39;24.60;61.80
46932;DHT22;32670;51.464;11.964;2023-10-13T15:31:16;24.60;61.70
46932;DHT22;32670;51.464;11.964;2023-10-13T15:33:52;24.60;61.60
46932;DHT22;32670;51.464;11.964;2023-10-13T15:36:22;24.60;61.50
46932;DHT22;32670;51.464;11.964;2023-10-13T15:38:50;24.60;61.40
46932;DHT22;32670;51.464;11.964;2023-10-13T15:41:23;24.60;61.20
46932;DHT22;32670;51.464;11.964;2023-10-13T15:43:49;24.60;61.20
46932;DHT22;32670;51.464;11.964;2023-10-13T15:46:16;24.60;61.20
46932;DHT22;32670;51.464;11.964;2023-10-13T15:48:42;24.60;61.40
46932;DHT22;32670;51.464;11.964;2023-10-13T15:51:11;24.60;61.20
46932;DHT22;32670;51.464;11.964;2023-10-13T15:53:40;24.60;61.30
46932;DHT22;32670;51.464;11.964;2023-10-13T15:56:06;24.60;61.50
46932;DHT22;32670;51.464;11.964;2023-10-13T15:58:37;24.60;61.50
46932;DHT22;32670;51.464;11.964;2023-10-13T16:01:04;24.60;61.50
46932;DHT22;32670;51.464;11.964;2023-10-13T16:03:30;24.60;61.50
46932;DHT22;32670;51.464;11.964;2023-10-13T16:05:55;24.60;61.50
46932;DHT22;32670;51.464;11.964;2023-10-13T16:08:21;24.60;61.50